createdAt,value
2022-12-20T00:02:18.641Z,12.93
2022-12-20T00:04:48.365Z,11.40
2022-12-20T00:07:18.172Z,15.13
2022-12-20T00:09:47.463Z,10.43
2022-12-20T00:12:17.636Z,13.52
2022-12-20T00:14:47.452Z,10.45
2022-12-20T00:17:19.176Z,11.02
2022-12-20T00:19:48.639Z,13.35
2022-12-20T00:22:18.646Z,11.70
2022-12-20T00:24:47.946Z,8.23
2022-12-20T00:27:17.711Z,10.63
2022-12-20T00:29:47.096Z,9.60
2022-12-20T00:32:18.280Z,9.20
2022-12-20T00:34:47.574Z,9.60
2022-12-20T00:37:17.543Z,8.50
2022-12-20T00:39:46.865Z,7.43
2022-12-20T00:42:17.165Z,8.20
2022-12-20T00:44:46.478Z,11.43
2022-12-20T00:47:17.900Z,11.02
2022-12-20T00:49:47.251Z,8.00
2022-12-20T00:52:16.886Z,6.80
2022-12-20T00:54:46.188Z,6.95
2022-12-20T00:57:15.977Z,9.23
2022-12-20T00:59:45.329Z,10.85
2022-12-20T01:02:15.280Z,10.90
2022-12-20T01:04:46.169Z,7.82
2022-12-20T01:09:44.919Z,7.70
2022-12-20T01:12:14.926Z,6.38
2022-12-20T01:14:44.226Z,7.75
2022-12-20T01:17:14.155Z,6.40
2022-12-20T01:19:44.935Z,8.43
2022-12-20T01:22:14.560Z,7.15
2022-12-20T01:24:43.976Z,7.40
2022-12-20T01:27:14.096Z,7.13
2022-12-20T01:29:43.404Z,8.85
2022-12-20T01:32:13.470Z,6.20
2022-12-20T01:34:43.046Z,7.50
2022-12-20T01:37:14.474Z,7.07
2022-12-20T01:42:16.741Z,8.40
2022-12-20T01:45:02.252Z,10.30
2022-12-20T01:47:35.553Z,8.68
2022-12-20T01:50:06.721Z,9.48
2022-12-20T01:52:42.146Z,9.70
2022-12-20T01:55:14.842Z,11.65
2022-12-20T01:57:48.606Z,13.98
2022-12-20T02:00:18.959Z,14.15
2022-12-20T02:05:21.490Z,15.38
2022-12-20T02:07:55.497Z,17.35
2022-12-20T02:10:29.164Z,18.00
2022-12-20T02:13:08.335Z,20.60
2022-12-20T02:15:49.247Z,19.63
2022-12-20T02:18:23.955Z,19.17
2022-12-20T02:21:23.631Z,19.05
2022-12-20T02:24:21.765Z,21.10
2022-12-20T02:27:27.139Z,21.65
2022-12-20T02:30:14.747Z,21.60
2022-12-20T02:32:50.765Z,21.50
2022-12-20T02:35:24.645Z,22.88
2022-12-20T02:37:56.546Z,25.95
2022-12-20T02:40:29.645Z,24.95
2022-12-20T02:43:03.269Z,28.13
2022-12-20T02:45:36.776Z,21.40
2022-12-20T02:48:09.765Z,26.77
2022-12-20T02:50:42.696Z,28.02
2022-12-20T02:53:14.326Z,30.02
2022-12-20T02:55:50.188Z,26.20
2022-12-20T02:58:28.313Z,29.27
2022-12-20T03:01:04.783Z,27.88
2022-12-20T03:03:35.340Z,28.23
2022-12-20T03:06:05.503Z,31.77
2022-12-20T03:08:34.966Z,31.70
2022-12-20T03:11:04.666Z,28.35
2022-12-20T03:13:34.092Z,28.20
2022-12-20T03:16:05.747Z,29.90
2022-12-20T03:18:35.028Z,30.77
2022-12-20T03:21:05.101Z,27.58
2022-12-20T03:23:34.918Z,31.60
2022-12-20T03:26:04.612Z,28.87
2022-12-20T03:28:34.668Z,27.90
2022-12-20T03:31:06.174Z,33.30
2022-12-20T03:36:05.852Z,27.00
2022-12-20T03:38:35.155Z,34.35
2022-12-20T03:41:04.832Z,35.60
2022-12-20T03:43:34.240Z,38.03
2022-12-20T03:46:05.997Z,30.97
2022-12-20T03:51:04.778Z,31.83
2022-12-20T03:53:34.670Z,35.42
2022-12-20T03:56:04.343Z,31.73
2022-12-20T03:58:34.047Z,36.63
2022-12-20T04:01:17.559Z,36.17
2022-12-20T04:03:47.172Z,34.65
2022-12-20T04:06:18.239Z,38.40
2022-12-20T04:08:47.924Z,37.85
2022-12-20T04:11:17.789Z,37.23
2022-12-20T04:13:47.671Z,37.45
2022-12-20T04:16:21.023Z,37.67
2022-12-20T04:18:50.540Z,33.38
2022-12-20T04:21:25.004Z,40.10
2022-12-20T04:23:54.411Z,39.70
2022-12-20T04:26:24.459Z,37.67
2022-12-20T04:28:54.199Z,36.28
2022-12-20T04:31:25.413Z,39.13
2022-12-20T04:33:55.484Z,35.13
2022-12-20T04:36:25.368Z,37.15
2022-12-20T04:38:55.381Z,41.65
2022-12-20T04:41:27.271Z,29.55
2022-12-20T04:43:58.166Z,42.88
2022-12-20T04:46:29.426Z,42.53
2022-12-20T04:48:59.807Z,44.20
2022-12-20T04:53:58.355Z,34.85
2022-12-20T04:56:30.581Z,37.63
2022-12-20T04:59:00.726Z,39.28
2022-12-20T05:01:31.980Z,38.15
2022-12-20T05:04:01.419Z,40.00
2022-12-20T05:06:31.272Z,36.75
2022-12-20T05:09:00.648Z,35.95
2022-12-20T05:11:30.930Z,33.85
2022-12-20T05:14:00.352Z,35.10
2022-12-20T05:16:31.603Z,35.35
2022-12-20T05:19:03.588Z,31.65
2022-12-20T05:21:50.586Z,30.95
2022-12-20T05:24:37.463Z,36.05
2022-12-20T05:27:07.363Z,31.83
2022-12-20T05:29:36.620Z,34.35
2022-12-20T05:32:08.087Z,31.90
2022-12-20T05:37:07.138Z,33.83
2022-12-20T05:39:36.398Z,38.03
2022-12-20T05:42:06.348Z,39.20
2022-12-20T05:44:35.813Z,40.30
2022-12-20T05:47:07.061Z,38.50
2022-12-20T05:49:36.741Z,40.45
2022-12-20T05:52:06.797Z,39.67
2022-12-20T05:54:36.094Z,41.88
2022-12-20T05:57:06.205Z,41.47
2022-12-20T05:59:35.637Z,39.30
2022-12-20T06:02:06.877Z,46.30
2022-12-20T06:07:06.675Z,42.03
2022-12-20T06:09:35.944Z,41.60
2022-12-20T06:12:06.225Z,42.25
2022-12-20T06:14:35.583Z,48.58
2022-12-20T06:17:06.989Z,49.53
2022-12-20T06:22:05.965Z,46.53
2022-12-20T06:24:35.404Z,51.72
2022-12-20T06:27:07.295Z,47.00
2022-12-20T06:29:37.972Z,46.33
2022-12-20T06:32:09.513Z,51.97
2022-12-20T06:34:38.866Z,53.15
2022-12-20T06:37:08.716Z,52.28
2022-12-20T06:39:37.972Z,48.70
2022-12-20T06:42:08.866Z,52.28
2022-12-20T06:44:38.284Z,50.83
2022-12-20T06:47:09.861Z,56.97
2022-12-20T06:49:39.160Z,52.67
2022-12-20T06:52:08.926Z,59.72
2022-12-20T06:54:38.290Z,52.08
2022-12-20T06:57:08.347Z,50.90
2022-12-20T06:59:37.785Z,51.90
2022-12-20T07:02:09.283Z,50.40
2022-12-20T07:04:39.462Z,61.50
2022-12-20T07:07:09.271Z,52.92
2022-12-20T07:09:41.580Z,56.80
2022-12-20T07:12:11.798Z,59.03
2022-12-20T07:14:41.237Z,57.40
2022-12-20T07:17:13.941Z,62.00
2022-12-20T07:19:50.339Z,57.95
2022-12-20T07:22:21.136Z,58.13
2022-12-20T07:24:50.597Z,52.10
2022-12-20T07:27:20.851Z,56.03
2022-12-20T07:29:50.106Z,55.85
2022-12-20T07:32:21.407Z,53.90
2022-12-20T07:37:20.245Z,47.42
2022-12-20T07:39:49.545Z,52.40
2022-12-20T07:42:19.792Z,50.22
2022-12-20T07:44:49.233Z,49.53
2022-12-20T07:47:18.888Z,48.60
2022-12-20T07:49:50.807Z,55.92
2022-12-20T07:52:25.163Z,63.47
2022-12-20T07:55:00.153Z,58.17
2022-12-20T07:57:33.811Z,56.88
2022-12-20T08:00:05.183Z,56.58
2022-12-20T08:02:41.332Z,58.78
2022-12-20T08:05:13.810Z,57.17
2022-12-20T08:07:44.846Z,62.05
2022-12-20T08:10:16.379Z,52.58
2022-12-20T08:12:47.783Z,48.65
2022-12-20T08:17:46.695Z,53.55
2022-12-20T08:20:17.929Z,51.40
2022-12-20T08:22:47.806Z,47.63
2022-12-20T08:25:17.342Z,48.42
2022-12-20T08:27:47.270Z,43.65
2022-12-20T08:30:17.239Z,45.50
2022-12-20T08:32:47.064Z,44.08
2022-12-20T08:35:18.005Z,47.72
2022-12-20T08:37:47.717Z,44.03
2022-12-20T08:40:17.331Z,48.05
2022-12-20T08:42:47.827Z,45.05
2022-12-20T08:45:19.230Z,50.15
2022-12-20T08:47:49.373Z,44.08
2022-12-20T08:50:20.744Z,42.30
2022-12-20T08:52:50.397Z,38.70
2022-12-20T08:55:24.569Z,42.65
2022-12-20T08:57:57.564Z,40.63
2022-12-20T09:00:26.821Z,43.67
2022-12-20T09:02:57.474Z,42.80
2022-12-20T09:05:28.572Z,42.28
2022-12-20T09:07:58.295Z,43.72
2022-12-20T09:10:27.603Z,45.58
2022-12-20T09:12:57.273Z,46.97
2022-12-20T09:15:28.306Z,38.22
2022-12-20T09:17:58.593Z,40.58
2022-12-20T09:20:30.187Z,40.40
2022-12-20T09:23:01.325Z,38.00
2022-12-20T09:25:30.886Z,44.92
2022-12-20T09:28:00.557Z,44.35
2022-12-20T09:30:29.958Z,40.05
2022-12-20T09:33:10.106Z,49.63
2022-12-20T09:35:46.559Z,44.60
2022-12-20T09:38:16.635Z,44.10
2022-12-20T09:40:48.726Z,42.05
2022-12-20T09:43:19.890Z,42.08
2022-12-20T09:45:52.328Z,43.00
2022-12-20T09:48:25.536Z,39.25
2022-12-20T09:51:07.405Z,40.17
2022-12-20T09:53:49.676Z,37.72
2022-12-20T09:56:26.977Z,44.08
2022-12-20T09:59:08.102Z,36.75
2022-12-20T10:01:40.049Z,38.38
2022-12-20T10:04:25.252Z,36.83
2022-12-20T10:07:17.719Z,34.80
2022-12-20T10:10:16.004Z,36.85
2022-12-20T10:12:53.746Z,36.00
2022-12-20T10:15:28.834Z,38.92
2022-12-20T10:18:21.095Z,40.85
2022-12-20T10:21:01.142Z,37.90
2022-12-20T10:23:37.355Z,36.17
2022-12-20T10:26:11.235Z,38.85
2022-12-20T10:28:41.268Z,37.38
2022-12-20T10:31:15.321Z,35.92
2022-12-20T10:33:45.539Z,38.72
2022-12-20T10:36:24.359Z,40.60
2022-12-20T10:38:57.154Z,40.70
2022-12-20T10:41:28.688Z,40.35
2022-12-20T10:44:02.444Z,39.42
2022-12-20T10:46:41.316Z,42.67
2022-12-20T10:49:34.208Z,39.97
2022-12-20T10:52:06.388Z,41.80
2022-12-20T10:54:39.494Z,39.92
2022-12-20T10:57:20.403Z,38.80
2022-12-20T10:59:54.425Z,38.70
2022-12-20T11:02:36.974Z,43.65
2022-12-20T11:05:24.311Z,39.38
2022-12-20T11:10:49.211Z,35.95
2022-12-20T11:13:26.116Z,44.95
2022-12-20T11:16:01.720Z,40.60
2022-12-20T11:18:41.958Z,39.28
2022-12-20T11:21:27.860Z,52.83
2022-12-20T11:24:07.706Z,40.42
2022-12-20T11:26:52.444Z,41.78
2022-12-20T11:29:48.716Z,38.13
2022-12-20T11:32:30.745Z,38.30
2022-12-20T11:35:11.118Z,35.03
2022-12-20T11:37:51.244Z,37.85
2022-12-20T11:40:32.409Z,33.20
2022-12-20T11:43:29.670Z,39.63
2022-12-20T11:46:18.487Z,36.03
2022-12-20T11:49:03.507Z,37.92
2022-12-20T11:51:39.187Z,36.28
2022-12-20T11:54:15.093Z,41.42
2022-12-20T11:56:48.343Z,31.35
2022-12-20T11:59:24.027Z,35.13
2022-12-20T12:01:59.611Z,38.40
2022-12-20T12:04:32.963Z,35.90
2022-12-20T12:07:09.215Z,33.85
2022-12-20T12:09:42.497Z,39.00
2022-12-20T12:12:18.964Z,38.08
2022-12-20T12:14:56.735Z,37.03
2022-12-20T12:17:31.297Z,40.83
2022-12-20T12:20:17.620Z,39.20
2022-12-20T12:22:51.319Z,43.60
2022-12-20T12:25:21.921Z,41.53
2022-12-20T12:30:22.938Z,34.97
2022-12-20T12:32:57.631Z,42.72
2022-12-20T12:35:53.836Z,34.25
2022-12-20T12:39:04.477Z,36.83
2022-12-20T12:42:09.599Z,36.25
2022-12-20T12:44:43.934Z,35.88
2022-12-20T12:47:19.024Z,36.28
2022-12-20T12:49:52.433Z,32.97
2022-12-20T12:52:46.402Z,34.35
2022-12-20T12:55:45.122Z,32.72
2022-12-20T12:58:33.142Z,34.05
2022-12-20T13:01:05.914Z,34.70
2022-12-20T13:04:08.181Z,35.65
2022-12-20T13:07:26.114Z,36.20
2022-12-20T13:09:55.674Z,33.45
2022-12-20T13:12:59.242Z,41.20
2022-12-20T13:16:08.296Z,32.28
2022-12-20T13:18:38.173Z,39.17
2022-12-20T13:21:37.078Z,33.40
2022-12-20T13:24:57.200Z,33.13
2022-12-20T13:27:36.271Z,27.48
2022-12-20T13:30:29.767Z,29.20
2022-12-20T13:33:24.476Z,29.80
2022-12-20T13:36:03.563Z,30.48
2022-12-20T13:39:05.471Z,31.73
2022-12-20T13:41:39.013Z,29.13
2022-12-20T13:44:45.873Z,29.52
2022-12-20T13:47:33.019Z,33.85
2022-12-20T13:50:03.766Z,33.35
2022-12-20T13:52:35.932Z,37.00
2022-12-20T13:55:18.003Z,31.33
2022-12-20T13:57:47.985Z,30.15
2022-12-20T14:00:19.595Z,33.20
2022-12-20T14:02:49.589Z,35.58
2022-12-20T14:05:22.515Z,29.05
2022-12-20T14:07:58.099Z,31.85
2022-12-20T14:10:31.378Z,29.55
2022-12-20T14:13:01.526Z,28.70
2022-12-20T14:15:33.405Z,32.78
2022-12-20T14:18:08.372Z,30.33
2022-12-20T14:20:39.327Z,32.95
2022-12-20T14:23:15.317Z,29.00
2022-12-20T14:25:49.670Z,30.85
2022-12-20T14:28:29.399Z,31.70
2022-12-20T14:31:01.442Z,30.38
2022-12-20T14:33:36.089Z,27.33
2022-12-20T14:36:19.450Z,31.10
2022-12-20T14:38:51.260Z,34.38
2022-12-20T14:41:36.682Z,32.95
2022-12-20T14:44:17.943Z,30.23
2022-12-20T14:46:51.972Z,36.92
2022-12-20T14:49:27.514Z,32.47
2022-12-20T14:52:09.484Z,27.50
2022-12-20T14:57:46.749Z,29.52
2022-12-20T15:00:23.563Z,29.83
2022-12-20T15:03:01.268Z,30.80
2022-12-20T15:05:49.797Z,33.55
2022-12-20T15:08:22.025Z,35.42
2022-12-20T15:11:01.456Z,32.70
2022-12-20T15:13:38.359Z,33.95
2022-12-20T15:16:15.621Z,34.70
2022-12-20T15:18:45.495Z,36.67
2022-12-20T15:21:17.329Z,35.05
2022-12-20T15:23:49.445Z,31.92
2022-12-20T15:26:20.787Z,29.52
2022-12-20T15:28:51.601Z,32.90
2022-12-20T15:31:30.755Z,30.05
2022-12-20T15:34:02.882Z,32.25
2022-12-20T15:36:34.239Z,38.10
2022-12-20T15:41:45.358Z,32.67
2022-12-20T15:44:18.910Z,27.95
2022-12-20T15:46:49.188Z,30.63
2022-12-20T15:49:20.012Z,35.53
2022-12-20T15:51:51.500Z,34.30
2022-12-20T15:54:27.838Z,34.88
2022-12-20T15:56:59.668Z,36.20
2022-12-20T16:02:24.705Z,40.50
2022-12-20T16:04:54.715Z,38.05
2022-12-20T16:07:25.162Z,33.53
2022-12-20T16:09:54.601Z,35.22
2022-12-20T16:12:27.329Z,34.95
2022-12-20T16:14:58.090Z,36.17
2022-12-20T16:17:27.802Z,31.50
2022-12-20T16:19:57.175Z,35.58
2022-12-20T16:22:27.346Z,37.35
2022-12-20T16:24:56.906Z,36.40
2022-12-20T16:27:26.668Z,37.60
2022-12-20T16:29:57.664Z,41.95
2022-12-20T16:32:27.351Z,39.55
2022-12-20T16:34:56.646Z,35.17
2022-12-20T16:37:26.482Z,42.78
2022-12-20T16:39:57.027Z,35.58
2022-12-20T16:42:26.927Z,42.35
2022-12-20T16:44:58.087Z,42.22
2022-12-20T16:47:28.623Z,41.67
2022-12-20T16:49:57.979Z,41.00
2022-12-20T16:52:27.673Z,42.53
2022-12-20T16:54:57.186Z,39.53
2022-12-20T16:57:27.438Z,44.40
2022-12-20T16:59:58.198Z,41.88
2022-12-20T17:02:30.622Z,45.67
2022-12-20T17:05:00.966Z,38.75
2022-12-20T17:07:33.180Z,41.40
2022-12-20T17:10:12.877Z,43.20
2022-12-20T17:12:42.624Z,44.60
2022-12-20T17:15:20.598Z,43.67
2022-12-20T17:17:51.004Z,43.55
2022-12-20T17:20:21.944Z,43.22
2022-12-20T17:25:42.205Z,42.60
2022-12-20T17:28:12.016Z,41.08
2022-12-20T17:30:43.444Z,45.75
2022-12-20T17:33:16.744Z,38.03
2022-12-20T17:35:46.087Z,36.22
2022-12-20T17:38:15.923Z,39.70
2022-12-20T17:40:45.351Z,36.55
2022-12-20T17:43:15.503Z,41.13
2022-12-20T17:45:47.432Z,39.67
2022-12-20T17:48:17.138Z,36.75
2022-12-20T17:50:46.445Z,43.92
2022-12-20T17:53:16.091Z,40.40
2022-12-20T17:55:45.375Z,39.10
2022-12-20T17:58:16.367Z,43.97
2022-12-20T18:00:47.604Z,39.17
2022-12-20T18:03:53.408Z,37.90
2022-12-20T18:06:08.482Z,32.72
2022-12-20T18:08:38.255Z,39.25
2022-12-20T18:11:07.872Z,34.15
2022-12-20T18:13:38.295Z,42.95
2022-12-20T18:16:10.619Z,42.25
2022-12-20T18:18:40.649Z,39.15
2022-12-20T18:21:11.886Z,41.38
2022-12-20T18:23:42.656Z,34.38
2022-12-20T18:26:14.158Z,41.47
2022-12-20T18:28:46.118Z,38.50
2022-12-20T18:31:19.408Z,37.45
2022-12-20T18:33:55.614Z,42.38
2022-12-20T18:36:28.911Z,37.22
2022-12-20T18:39:00.274Z,38.20
2022-12-20T18:44:01.818Z,42.03
2022-12-20T18:46:33.019Z,37.20
2022-12-20T18:49:03.393Z,36.80
2022-12-20T18:51:36.923Z,39.25
2022-12-20T18:54:07.716Z,42.38
2022-12-20T18:56:38.678Z,41.65
2022-12-20T18:59:12.700Z,39.30
2022-12-20T19:01:44.648Z,41.38
2022-12-20T19:04:19.277Z,40.80
2022-12-20T19:06:52.047Z,46.85
2022-12-20T19:09:21.870Z,48.53
2022-12-20T19:11:56.673Z,46.95
2022-12-20T19:14:27.423Z,52.38
2022-12-20T19:16:58.263Z,47.38
2022-12-20T19:19:28.891Z,52.78
2022-12-20T19:21:58.267Z,44.58
2022-12-20T19:24:27.942Z,47.60
2022-12-20T19:26:57.890Z,37.75
2022-12-20T19:29:27.697Z,46.97
2022-12-20T19:31:58.484Z,47.08
2022-12-20T19:34:28.221Z,40.03
2022-12-20T19:36:57.544Z,41.00
2022-12-20T19:39:29.072Z,42.85
2022-12-20T19:42:23.011Z,45.42
2022-12-20T19:44:49.920Z,44.50
2022-12-20T19:47:20.785Z,46.05
2022-12-20T19:49:50.827Z,42.10
2022-12-20T19:52:26.440Z,38.05
2022-12-20T19:54:57.991Z,39.85
2022-12-20T19:57:27.294Z,42.25
2022-12-20T19:59:57.668Z,44.35
2022-12-20T20:02:28.961Z,42.33
2022-12-20T20:04:59.260Z,40.60
2022-12-20T20:07:28.670Z,42.25
2022-12-20T20:09:58.359Z,42.58
2022-12-20T20:12:27.767Z,49.65
2022-12-20T20:14:57.636Z,51.60
2022-12-20T20:17:28.572Z,48.45
2022-12-20T20:19:58.242Z,45.92
2022-12-20T20:22:27.816Z,51.58
2022-12-20T20:24:58.156Z,54.03
2022-12-20T20:27:27.849Z,51.47
2022-12-20T20:29:57.671Z,46.97
2022-12-20T20:32:28.436Z,44.88
2022-12-20T20:34:58.330Z,47.42
2022-12-20T20:37:27.844Z,44.95
2022-12-20T20:39:57.674Z,44.42
2022-12-20T20:42:27.100Z,50.35
2022-12-20T20:44:56.786Z,47.08
2022-12-20T20:47:26.089Z,41.65
2022-12-20T20:49:57.239Z,45.88
2022-12-20T20:52:26.681Z,43.75
2022-12-20T20:54:56.501Z,41.78
2022-12-20T20:57:25.803Z,43.95
2022-12-20T20:59:55.790Z,48.45
2022-12-20T21:02:25.834Z,43.38
2022-12-20T21:05:47.214Z,42.85
2022-12-20T21:07:46.956Z,44.40
2022-12-20T21:10:16.873Z,41.00
2022-12-20T21:12:46.463Z,43.13
2022-12-20T21:15:24.340Z,39.90
2022-12-20T21:17:54.220Z,45.40
2022-12-20T21:20:26.567Z,41.75
2022-12-20T21:22:57.561Z,42.78
2022-12-20T21:25:27.274Z,47.30
2022-12-20T21:27:57.390Z,39.80
2022-12-20T21:30:27.806Z,38.38
2022-12-20T21:32:57.148Z,36.83
2022-12-20T21:35:29.028Z,41.30
2022-12-20T21:37:58.500Z,39.47
2022-12-20T21:40:28.122Z,41.90
2022-12-20T21:42:57.618Z,43.03
2022-12-20T21:45:27.759Z,48.25
2022-12-20T21:48:02.739Z,39.05
2022-12-20T21:50:34.391Z,46.47
2022-12-20T21:53:03.827Z,43.53
2022-12-20T21:55:33.615Z,45.70
2022-12-20T21:58:02.926Z,42.30
2022-12-20T22:00:32.945Z,45.55
2022-12-20T22:03:02.412Z,47.92
2022-12-20T22:05:33.735Z,46.28
2022-12-20T22:08:03.059Z,39.75
2022-12-20T22:10:32.747Z,39.45
2022-12-20T22:13:02.031Z,47.33
2022-12-20T22:15:32.702Z,42.90
2022-12-20T22:18:01.976Z,40.40
2022-12-20T22:20:31.770Z,39.25
2022-12-20T22:23:02.726Z,37.80
2022-12-20T22:25:32.815Z,45.20
2022-12-20T22:28:02.110Z,42.75
2022-12-20T22:30:32.266Z,44.83
2022-12-20T22:33:01.626Z,39.50
2022-12-20T22:35:31.256Z,39.10
2022-12-20T22:38:02.348Z,40.95
2022-12-20T22:40:32.195Z,40.83
2022-12-20T22:43:01.615Z,44.60
2022-12-20T22:45:31.432Z,40.08
2022-12-20T22:48:00.753Z,41.35
2022-12-20T22:50:30.503Z,40.20
2022-12-20T22:53:02.099Z,45.10
2022-12-20T22:55:31.899Z,42.90
2022-12-20T22:58:01.216Z,44.83
2022-12-20T23:00:30.895Z,43.05
2022-12-20T23:03:00.358Z,44.75
2022-12-20T23:05:30.336Z,45.05
2022-12-20T23:07:59.791Z,45.88
2022-12-20T23:10:47.979Z,49.38
2022-12-20T23:13:34.334Z,43.75
2022-12-20T23:16:04.169Z,38.85
2022-12-20T23:18:33.745Z,44.35
2022-12-20T23:21:20.569Z,47.03
2022-12-20T23:23:55.733Z,44.95
2022-12-20T23:26:27.532Z,43.15
2022-12-20T23:31:26.692Z,46.97
2022-12-20T23:33:55.981Z,43.15
2022-12-20T23:36:25.689Z,47.78
2022-12-20T23:38:55.195Z,43.20
2022-12-20T23:41:25.636Z,43.40
2022-12-20T23:43:56.610Z,45.28
2022-12-20T23:46:27.373Z,42.45
2022-12-20T23:48:56.879Z,39.53
2022-12-20T23:51:26.644Z,46.05
2022-12-20T23:53:56.332Z,39.55
2022-12-20T23:56:26.131Z,43.55
2022-12-20T23:58:58.003Z,44.38
